Home > Products > Valid Products > MTR

000
SAUS43 KBIS 210853
MTRN60
METAR KN60 210852Z AUTO 30011KT 04/01 A3006 RMK AO1 SLP182 T00440006
53014





000
SAUS43 KBIS 210754
MTRN60
METAR KN60 210752Z AUTO 30011KT 06/00 A3004 RMK AO1 SLP174 T00560000





000
SAUS43 KBIS 210654
MTRN60
METAR KN60 210652Z AUTO 29012KT 08/00 A3002 RMK AO1 SLP168 T00780000





000
SAUS43 KBIS 210554
MTRN60
METAR KN60 210552Z AUTO 29010KT 09/M01 A3002 RMK AO1 SLP167
T00891011 10189 20078 402281011 51015





000
SAUS43 KBIS 210453
MTRN60
METAR KN60 210452Z AUTO 29008KT 08/M01 A3000 RMK AO1 SLP163
T00831011





000
SAUS43 KBIS 210354
MTRN60
METAR KN60 210352Z AUTO 30011KT 11/M01 A2999 RMK AO1 SLP160
T01111011





000
SAUS43 KBIS 210253
MTRN60
METAR KN60 210252Z AUTO 30011KT 10/M01 A2997 RMK AO1 SLP156
T01001011 53020





000
SAUS43 KBIS 210154
MTRN60
METAR KN60 210152Z AUTO 31008KT 12/M01 A2995 RMK AO1 SLP149
T01221011





000
SAUS43 KBIS 210054
MTRN60
METAR KN60 210052Z AUTO 30015G27KT 17/M02 A2992 RMK AO1 PK WND
30029/2356 SLP141 T01671022





000
SAUS43 KBIS 202354
MTRN60
METAR KN60 202352Z AUTO 29021G28KT 19/M04 A2991 RMK AO1 PK WND
29029/2330 SLP134 T01891044 10228 20183 51023





000
SAUS43 KBIS 202253
MTRN60
METAR KN60 202252Z AUTO 29018G28KT 19/M02 A2989 RMK AO1 PK WND
29032/2203 SLP131 T01891022





000
SAUS43 KBIS 202154
MTRN60
METAR KN60 202152Z AUTO 30022G30KT 21/M01 A2987 RMK AO1 PK WND
30033/2113 SLP120 T02111006





000
SAUS43 KBIS 202054
MTRN60
METAR KN60 202052Z AUTO 26021G27KT 23/03 A2984 RMK AO1 PK WND
26027/2037 SLP107 T02280028 55006





000
SAUS43 KBIS 201954
MTRN60
METAR KN60 201952Z AUTO 25014KT 23/03 A2983 RMK AO1 SLP107 T02280028





000
SAUS43 KBIS 201854
MTRN60
METAR KN60 201852Z AUTO 22014KT 21/02 A2984 RMK AO1 SLP111 T02110022





000
SAUS43 KBIS 201754
MTRN60
METAR KN60 201752Z AUTO 18011KT 19/01 A2986 RMK AO1 SLP116 T01890006
10194 21011 56017





000
SAUS43 KBIS 201653
MTRN60
METAR KN60 201652Z AUTO 18008KT 16/01 A2988 RMK AO1 SLP126 T01560011





000
SAUS43 KBIS 201554
MTRN60
METAR KN60 201552Z AUTO 16011KT 13/02 A2989 RMK AO1 SLP130 T01330022





000
SAUS43 KBIS 201453
MTRN60
METAR KN60 201452Z AUTO 17008KT 09/03 A2991 RMK AO1 SLP139 T00940028
57007





000
SAUS43 KBIS 201354
MTRN60
METAR KN60 201352Z AUTO 14006KT 06/03 A2992 RMK AO1 SLP142 T00610028





000
SAUS43 KBIS 201253
MTRN60
METAR KN60 201252Z AUTO 11003KT 02/01 A2992 RMK AO1 SLP143 T00220006





000
SAUS43 KBIS 201154
MTRN60
METAR KN60 201152Z AUTO 08003KT 01/M02 A2993 RMK AO1 SLP146
T00061017 10033 20000 56007





000
SAUS43 KBIS 201053
MTRN60
METAR KN60 201052Z AUTO 10003KT 01/M02 A2994 RMK AO1 SLP149
T00061017





000
SAUS43 KBIS 200954
MTRN60
METAR KN60 200952Z AUTO 08003KT 00/M02 A2994 RMK AO1 SLP150
T00001022





000
SAUS43 KBIS 200853
MTRN60
METAR KN60 200852Z AUTO 09004KT 01/M01 A2995 RMK AO1 SLP155
T00111011 58004





000
SAUS43 KBIS 200754
MTRN60
METAR KN60 200752Z AUTO 10004KT 02/M01 A2995 RMK AO1 SLP157
T00171006





000
SAUS43 KBIS 200653
MTRN60
METAR KN60 200652Z AUTO 11004KT 01/M01 A2996 RMK AO1 SLP160
T00111011





000
SAUS43 KBIS 200554
MTRN60
METAR KN60 200552Z AUTO 10005KT 02/M01 A2996 RMK AO1 SLP160
T00221006 10144 20022 401440011 51004





000
SAUS43 KBIS 200453
MTRN60
METAR KN60 200452Z AUTO 00000KT 03/M01 A2996 RMK AO1 SLP159
T00331006





000
SAUS43 KBIS 200354
MTRN60
METAR KN60 200352Z AUTO 04004KT 04/M01 A2996 RMK AO1 SLP158
T00441006





000
SAUS43 KBIS 200253
MTRN60
METAR KN60 200252Z AUTO 00000KT 07/01 A2995 RMK AO1 SLP153 T00720006
51007





000
SAUS43 KBIS 200154
MTRN60
METAR KN60 200152Z AUTO 34005KT 08/01 A2994 RMK AO1 SLP150 T00830006





000
SAUS43 KBIS 200053
MTRN60
METAR KN60 200052Z AUTO 29005KT 13/01 A2994 RMK AO1 SLP150 T01330011





000
SAUS43 KBIS 192354
MTRN60
METAR KN60 192352Z AUTO 29011G18KT 14/01 A2993 RMK AO1 SLP146
T01440011 10144 20089 55003





000
SAUS43 KBIS 192253
MTRN60
METAR KN60 192252Z AUTO 29014KT 14/02 A2993 RMK AO1 PK WND
29027/2158 SLP143 T01440017





000
SAUS43 KBIS 192154
MTRN60
METAR KN60 192152Z AUTO 28018G23KT 14/02 A2993 RMK AO1 SLP146
T01390017





000
SAUS43 KBIS 192053
MTRN60
METAR KN60 192052Z AUTO 29020G24KT 12/02 A2994 RMK AO1 PK WND
31027/2013 SLP149 T01220017 52014





000
SAUS43 KBIS 191954
MTRN60
METAR KN60 191952Z AUTO 30014G25KT 11/02 A2993 RMK AO1 PK WND
29027/1857 SLP145 T01060022





000
SAUS43 KBIS 191853
MTRN60
METAR KN60 191852Z AUTO 28020G28KT 11/02 A2991 RMK AO1 PK WND
28030/1822 SLP140 T01060022





000
SAUS43 KBIS 191754
MTRN60
METAR KN60 191752Z AUTO 28018G25KT 09/02 A2990 RMK AO1 PK WND
28027/1736 SLP138 T00940022 10094 20011 51023





000
SAUS43 KBIS 191653
MTRN60
METAR KN60 191652Z AUTO 29022G29KT 08/02 A2988 RMK AO1 PK WND
28032/1624 SLP129 T00830022





000
SAUS43 KBIS 191554
MTRN60
METAR KN60 191552Z AUTO 28019G30KT 08/02 A2985 RMK AO1 PK WND
28033/1506 SLP118 T00830022





000
SAUS43 KBIS 191454
MTRN60
METAR KN60 191452Z AUTO 28027G32KT 08/02 A2983 RMK AO1 PK WND
27034/1437 SLP110 T00780022 51021





000
SAUS43 KBIS 191353
MTRN60
METAR KN60 191352Z AUTO 26015G21KT 07/01 A2980 RMK AO1 SLP103
T00670006





000
SAUS43 KBIS 191253
MTRN60
METAR KN60 191252Z AUTO 26011KT 02/00 A2979 RMK AO1 SLP101 T00220000





000
SAUS43 KBIS 191154
MTRN60
METAR KN60 191152Z AUTO 26008KT 01/M01 A2976 RMK AO1 SLP091 70002
T00111006 10056 20011 53008





000
SAUS43 KBIS 191053
MTRN60
METAR KN60 191052Z AUTO 24010KT 03/01 A2975 RMK AO1 SLP083 T00330006





000
SAUS43 KBIS 190954
MTRN60
METAR KN60 190952Z AUTO 27006KT 03/01 A2973 RMK AO1 SLP078 T00280011





000
SAUS43 KBIS 190854
MTRN60
METAR KN60 190852Z AUTO 27007KT 03/02 A2974 RMK AO1 SLP079 T00280017
53016





000
SAUS43 KBIS 190754
MTRN60
METAR KN60 190752Z AUTO 32011KT 05/03 A2969 RMK AO1 SLP061 T00500028





000
SAUS43 KBIS 190653
MTRN60
METAR KN60 190652Z AUTO 29010KT 04/02 A2973 RMK AO1 SLP075 T00390022





000
SAUS43 KBIS 190554
MTRN60
METAR KN60 190552Z AUTO VRB04KT 03/02 A2969 RMK AO1 SLP065 60002
T00280017 10111 20028 401441006 53003





000
SAUS43 KBIS 190454
MTRN60
METAR KN60 190452Z AUTO 09006KT 06/03 A2965 RMK AO1 SLP050 T00560033





000
SAUS43 KBIS 190354
MTRN60
METAR KN60 190352Z AUTO 08010KT 06/04 A2968 RMK AO1 SLP063 P0002
T00610039





000
SAUS43 KBIS 190253
MTRN60
METAR KN60 190252Z AUTO 10013KT 07/03 A2968 RMK AO1 SLP063 T00720028
58001





000
SAUS43 KBIS 190154
MTRN60
METAR KN60 190152Z AUTO 11017KT 08/02 A2967 RMK AO1 SLP062 T00780022





000
SAUS43 KBIS 190053
MTRN60
METAR KN60 190052Z AUTO 11015G21KT 09/02 A2969 RMK AO1 PK WND
11030/0014 SLP070 T00890017





000
SAUS43 KBIS 182354
MTRN60
METAR KN60 182352Z AUTO 11020G30KT 11/02 A2968 RMK AO1 PK WND
12031/2319 SLP063 T01110022 10144 20094 56023





000
SAUS43 KBIS 182253
MTRN60
METAR KN60 182252Z AUTO 12019KT 12/03 A2968 RMK AO1 PK WND
11028/2232 SLP064 T01220028





000
SAUS43 KBIS 182154
MTRN60
METAR KN60 182152Z AUTO 13020G29KT 13/02 A2973 RMK AO1 PK WND
15033/2058 SLP079 T01280017





000
SAUS43 KBIS 182053
MTRN60
METAR KN60 182052Z AUTO 14024G35KT 13/01 A2976 RMK AO1 PK WND
13037/2033 SLP087 T01280011 56042





000
SAUS43 KBIS 181954
MTRN60
METAR KN60 181952Z AUTO 13024G33KT 13/00 A2979 RMK AO1 PK WND
13037/1935 SLP098 T01330000





000
SAUS43 KBIS 181854
MTRN60
METAR KN60 181852Z AUTO 12024G33KT 11/M02 A2983 RMK AO1 PK WND
12033/1835 SLP114 T01111022





000
SAUS43 KBIS 181754
MTRN60
METAR KN60 181752Z AUTO 13023G33KT 09/M03 A2989 RMK AO1 PK WND
12033/1746 SLP135 T00941028 10094 20006 58023





000
SAUS43 KBIS 181653
MTRN60
METAR KN60 181652Z AUTO 12020G28KT 08/M03 A2993 RMK AO1 PK WND
13030/1635 SLP150 T00781033





000
SAUS43 KBIS 181554
MTRN60
METAR KN60 181552Z AUTO 13020G28KT 06/M04 A2995 RMK AO1 PK WND
13031/1511 SLP158 T00611039





000
SAUS43 KBIS 181453
MTRN60
METAR KN60 181452Z AUTO 12023G28KT 04/M04 A2996 RMK AO1 PK WND
12031/1414 SLP162 T00391044 58017





000
SAUS43 KBIS 181354
MTRN60
METAR KN60 181352Z AUTO 12022KT 02/M05 A2998 RMK AO1 PK WND
13027/1326 SLP172 T00171050





000
SAUS43 KBIS 181253
MTRN60
METAR KN60 181252Z AUTO 12020KT 01/M05 A3000 RMK AO1 PK WND
12026/1220 SLP177 T00061050





000
SAUS43 KBIS 181154
MTRN60
METAR KN60 181152Z AUTO 12016G25KT 01/M05 A3001 RMK AO1 SLP180 70001
T00061050 10017 21006 56015





000
SAUS43 KBIS 181054
MTRN60
METAR KN60 181052Z AUTO 11014KT 00/M05 A3002 RMK AO1 SLP185
T00001050





000
SAUS43 KBIS 180954
MTRN60
METAR KN60 180952Z AUTO 11011KT 00/M04 A3004 RMK AO1 SLP190
T00001044





    US Dept of Commerce
    National Oceanic and Atmospheric Administration
    National Weather Service
    1325 East West Highway
    Silver Spring, MD 20910
    Page Author: NWS Internet Services Team
Disclaimer
Information Quality
Credits
Glossary
Privacy Policy
Freedom of Information Act (FOIA)
About Us
Career Opportunities